sensor_id;sensor_type;location;lat;lon;timestamp;pressure;altitude;pressure_sealevel;temperature;humidity
50859;BME280;36826;47.514;19.056;2023-02-01T00:00:12;100152.56;;;12.85;54.46
50859;BME280;36826;47.514;19.056;2023-02-01T00:02:38;100149.50;;;12.80;54.75
50859;BME280;36826;47.514;19.056;2023-02-01T00:05:06;100154.59;;;12.83;54.64
50859;BME280;36826;47.514;19.056;2023-02-01T00:07:32;100152.22;;;12.98;54.49
50859;BME280;36826;47.514;19.056;2023-02-01T00:09:57;100156.38;;;12.65;54.93
50859;BME280;36826;47.514;19.056;2023-02-01T00:12:22;100146.28;;;12.77;54.74
50859;BME280;36826;47.514;19.056;2023-02-01T00:14:48;100152.47;;;12.59;55.38
50859;BME280;36826;47.514;19.056;2023-02-01T00:17:13;100136.91;;;12.81;54.71
50859;BME280;36826;47.514;19.056;2023-02-01T00:19:38;100141.34;;;12.72;54.71
50859;BME280;36826;47.514;19.056;2023-02-01T00:22:04;100141.44;;;12.80;54.38
50859;BME280;36826;47.514;19.056;2023-02-01T00:24:29;100143.84;;;12.83;54.72
50859;BME280;36826;47.514;19.056;2023-02-01T00:26:54;100142.63;;;12.96;54.48
50859;BME280;36826;47.514;19.056;2023-02-01T00:29:20;100149.97;;;12.94;54.40
50859;BME280;36826;47.514;19.056;2023-02-01T00:31:46;100142.28;;;12.99;54.32
50859;BME280;36826;47.514;19.056;2023-02-01T00:34:12;100139.00;;;12.87;54.28
50859;BME280;36826;47.514;19.056;2023-02-01T00:36:38;100144.06;;;12.90;54.13
50859;BME280;36826;47.514;19.056;2023-02-01T00:39:03;100147.38;;;13.20;53.67
50859;BME280;36826;47.514;19.056;2023-02-01T00:41:28;100143.44;;;13.14;53.60
50859;BME280;36826;47.514;19.056;2023-02-01T00:43:54;100133.66;;;12.31;54.69
50859;BME280;36826;47.514;19.056;2023-02-01T00:46:19;100129.47;;;12.19;55.21
50859;BME280;36826;47.514;19.056;2023-02-01T00:48:45;100141.38;;;12.06;55.02
50859;BME280;36826;47.514;19.056;2023-02-01T00:51:11;100137.31;;;12.30;54.85
50859;BME280;36826;47.514;19.056;2023-02-01T00:53:37;100137.91;;;12.80;54.00
50859;BME280;36826;47.514;19.056;2023-02-01T00:56:03;100142.16;;;12.54;54.09
50859;BME280;36826;47.514;19.056;2023-02-01T00:58:29;100136.28;;;12.41;54.20
50859;BME280;36826;47.514;19.056;2023-02-01T01:01:07;100143.97;;;12.82;53.61
50859;BME280;36826;47.514;19.056;2023-02-01T01:03:34;100152.28;;;12.88;53.42
50859;BME280;36826;47.514;19.056;2023-02-01T01:06:00;100136.97;;;12.71;53.32
50859;BME280;36826;47.514;19.056;2023-02-01T01:08:25;100127.91;;;12.72;53.27
50859;BME280;36826;47.514;19.056;2023-02-01T01:10:51;100119.00;;;12.71;52.96
50859;BME280;36826;47.514;19.056;2023-02-01T01:13:16;100115.09;;;12.66;53.04
50859;BME280;36826;47.514;19.056;2023-02-01T01:15:41;100116.78;;;12.67;53.05
50859;BME280;36826;47.514;19.056;2023-02-01T01:18:07;100094.13;;;12.69;52.94
50859;BME280;36826;47.514;19.056;2023-02-01T01:20:36;100097.44;;;12.81;52.94
50859;BME280;36826;47.514;19.056;2023-02-01T01:23:02;100085.00;;;12.80;52.62
50859;BME280;36826;47.514;19.056;2023-02-01T01:25:28;100083.06;;;12.54;53.36
50859;BME280;36826;47.514;19.056;2023-02-01T01:27:53;100083.84;;;12.37;53.23
50859;BME280;36826;47.514;19.056;2023-02-01T01:30:18;100073.59;;;12.50;53.24
50859;BME280;36826;47.514;19.056;2023-02-01T01:32:44;100072.38;;;12.63;52.96
50859;BME280;36826;47.514;19.056;2023-02-01T01:35:09;100072.16;;;12.74;52.58
50859;BME280;36826;47.514;19.056;2023-02-01T01:37:35;100073.38;;;12.62;52.35
50859;BME280;36826;47.514;19.056;2023-02-01T01:40:01;100071.00;;;12.58;52.43
50859;BME280;36826;47.514;19.056;2023-02-01T01:42:26;100059.09;;;12.61;52.52
50859;BME280;36826;47.514;19.056;2023-02-01T01:44:56;100062.78;;;12.60;52.18
50859;BME280;36826;47.514;19.056;2023-02-01T01:47:22;100070.63;;;12.71;52.59
50859;BME280;36826;47.514;19.056;2023-02-01T01:49:48;100077.22;;;12.59;52.54
50859;BME280;36826;47.514;19.056;2023-02-01T01:52:14;100090.13;;;12.73;52.55
50859;BME280;36826;47.514;19.056;2023-02-01T01:54:47;100074.41;;;12.97;52.02
50859;BME280;36826;47.514;19.056;2023-02-01T01:57:17;100067.34;;;12.96;51.82
50859;BME280;36826;47.514;19.056;2023-02-01T01:59:46;100063.88;;;12.85;52.14
50859;BME280;36826;47.514;19.056;2023-02-01T02:02:14;100072.50;;;12.71;51.91
50859;BME280;36826;47.514;19.056;2023-02-01T02:04:40;100069.16;;;12.77;52.07
50859;BME280;36826;47.514;19.056;2023-02-01T02:07:08;100076.94;;;12.62;52.48
50859;BME280;36826;47.514;19.056;2023-02-01T02:09:36;100058.88;;;12.54;52.38
50859;BME280;36826;47.514;19.056;2023-02-01T02:12:02;100052.63;;;12.36;52.69
50859;BME280;36826;47.514;19.056;2023-02-01T02:14:27;100060.59;;;11.90;53.70
50859;BME280;36826;47.514;19.056;2023-02-01T02:27:15;100063.97;;;12.30;52.18
50859;BME280;36826;47.514;19.056;2023-02-01T02:30:08;100051.34;;;12.12;51.82
50859;BME280;36826;47.514;19.056;2023-02-01T02:40:25;100044.63;;;12.26;51.85
50859;BME280;36826;47.514;19.056;2023-02-01T02:42:58;100039.38;;;12.52;51.38
50859;BME280;36826;47.514;19.056;2023-02-01T02:45:46;100039.38;;;11.96;52.42
50859;BME280;36826;47.514;19.056;2023-02-01T02:48:44;100040.25;;;12.25;51.54
50859;BME280;36826;47.514;19.056;2023-02-01T02:51:29;100039.72;;;12.39;51.92
50859;BME280;36826;47.514;19.056;2023-02-01T02:54:21;100034.13;;;12.33;51.79
50859;BME280;36826;47.514;19.056;2023-02-01T02:57:07;100028.91;;;12.49;51.65
50859;BME280;36826;47.514;19.056;2023-02-01T02:59:52;100028.22;;;12.47;51.02
50859;BME280;36826;47.514;19.056;2023-02-01T03:02:36;100024.00;;;11.61;52.56
50859;BME280;36826;47.514;19.056;2023-02-01T03:05:21;100019.03;;;11.66;52.72
50859;BME280;36826;47.514;19.056;2023-02-01T03:07:57;100016.47;;;11.74;52.26
50859;BME280;36826;47.514;19.056;2023-02-01T03:13:23;99997.09;;;11.71;52.53
50859;BME280;36826;47.514;19.056;2023-02-01T03:18:28;100015.94;;;11.89;51.84
50859;BME280;36826;47.514;19.056;2023-02-01T03:20:56;100009.47;;;11.91;52.21
50859;BME280;36826;47.514;19.056;2023-02-01T03:23:24;100011.44;;;11.89;52.07
50859;BME280;36826;47.514;19.056;2023-02-01T03:25:52;100005.63;;;11.56;53.14
50859;BME280;36826;47.514;19.056;2023-02-01T03:28:18;100005.34;;;11.59;53.02
50859;BME280;36826;47.514;19.056;2023-02-01T03:30:46;100010.00;;;12.05;51.98
50859;BME280;36826;47.514;19.056;2023-02-01T03:33:14;100007.41;;;11.38;52.85
50859;BME280;36826;47.514;19.056;2023-02-01T03:38:27;100006.97;;;11.80;52.03
50859;BME280;36826;47.514;19.056;2023-02-01T03:41:32;99996.91;;;11.54;52.65
50859;BME280;36826;47.514;19.056;2023-02-01T03:43:58;99991.84;;;11.51;52.98
50859;BME280;36826;47.514;19.056;2023-02-01T03:46:27;100001.94;;;11.10;53.54
50859;BME280;36826;47.514;19.056;2023-02-01T03:48:58;100003.72;;;11.76;53.08
50859;BME280;36826;47.514;19.056;2023-02-01T03:51:25;100003.53;;;11.60;52.41
50859;BME280;36826;47.514;19.056;2023-02-01T03:53:50;99997.75;;;11.55;53.09
50859;BME280;36826;47.514;19.056;2023-02-01T03:56:17;100001.44;;;11.44;53.50
50859;BME280;36826;47.514;19.056;2023-02-01T03:58:43;99985.31;;;11.16;53.83
50859;BME280;36826;47.514;19.056;2023-02-01T04:01:23;99989.31;;;11.77;52.26
50859;BME280;36826;47.514;19.056;2023-02-01T04:03:49;99997.41;;;11.95;52.24
50859;BME280;36826;47.514;19.056;2023-02-01T04:06:16;99995.81;;;11.37;53.40
50859;BME280;36826;47.514;19.056;2023-02-01T04:08:41;99993.47;;;11.24;54.35
50859;BME280;36826;47.514;19.056;2023-02-01T04:11:07;99982.50;;;11.08;54.12
50859;BME280;36826;47.514;19.056;2023-02-01T04:13:32;99986.06;;;10.59;55.21
50859;BME280;36826;47.514;19.056;2023-02-01T04:15:57;99991.41;;;10.79;54.82
50859;BME280;36826;47.514;19.056;2023-02-01T04:18:22;99993.81;;;10.92;54.79
50859;BME280;36826;47.514;19.056;2023-02-01T04:20:48;99996.16;;;11.14;54.32
50859;BME280;36826;47.514;19.056;2023-02-01T04:23:13;99977.59;;;10.73;54.64
50859;BME280;36826;47.514;19.056;2023-02-01T04:25:40;99980.13;;;10.75;54.29
50859;BME280;36826;47.514;19.056;2023-02-01T04:28:05;99980.13;;;10.85;53.96
50859;BME280;36826;47.514;19.056;2023-02-01T04:30:31;99997.63;;;10.79;54.15
50859;BME280;36826;47.514;19.056;2023-02-01T04:32:57;99996.91;;;11.54;53.36
50859;BME280;36826;47.514;19.056;2023-02-01T04:35:22;99993.66;;;10.93;53.52
50859;BME280;36826;47.514;19.056;2023-02-01T04:37:47;100002.66;;;11.59;53.24
50859;BME280;36826;47.514;19.056;2023-02-01T04:40:13;100001.84;;;11.01;54.41
50859;BME280;36826;47.514;19.056;2023-02-01T04:42:38;99999.28;;;11.10;54.41
50859;BME280;36826;47.514;19.056;2023-02-01T04:45:03;100013.97;;;10.47;55.34
50859;BME280;36826;47.514;19.056;2023-02-01T04:47:29;100015.06;;;11.23;54.28
50859;BME280;36826;47.514;19.056;2023-02-01T04:49:54;100005.22;;;11.03;54.37
50859;BME280;36826;47.514;19.056;2023-02-01T04:52:19;100004.91;;;11.16;54.59
50859;BME280;36826;47.514;19.056;2023-02-01T04:54:45;100004.13;;;10.77;54.99
50859;BME280;36826;47.514;19.056;2023-02-01T04:57:10;100021.25;;;11.23;53.84
50859;BME280;36826;47.514;19.056;2023-02-01T04:59:38;100022.44;;;10.71;55.14
50859;BME280;36826;47.514;19.056;2023-02-01T05:02:03;100021.88;;;10.78;54.72
50859;BME280;36826;47.514;19.056;2023-02-01T05:04:28;100009.13;;;11.19;54.05
50859;BME280;36826;47.514;19.056;2023-02-01T05:06:54;100027.09;;;10.69;54.64
50859;BME280;36826;47.514;19.056;2023-02-01T05:09:19;99999.88;;;10.94;54.44
50859;BME280;36826;47.514;19.056;2023-02-01T05:11:46;100014.81;;;10.67;55.34
50859;BME280;36826;47.514;19.056;2023-02-01T05:14:29;100007.75;;;11.15;54.51
50859;BME280;36826;47.514;19.056;2023-02-01T05:16:55;100004.34;;;11.23;54.20
50859;BME280;36826;47.514;19.056;2023-02-01T05:19:20;100009.16;;;11.09;53.66
50859;BME280;36826;47.514;19.056;2023-02-01T05:21:45;100013.66;;;11.28;53.25
50859;BME280;36826;47.514;19.056;2023-02-01T05:24:11;100015.38;;;10.80;54.08
50859;BME280;36826;47.514;19.056;2023-02-01T05:26:44;100020.31;;;10.65;54.71
50859;BME280;36826;47.514;19.056;2023-02-01T05:29:10;100035.38;;;11.05;53.52
50859;BME280;36826;47.514;19.056;2023-02-01T05:31:35;100025.53;;;11.16;53.80
50859;BME280;36826;47.514;19.056;2023-02-01T05:34:01;100011.94;;;11.27;53.62
50859;BME280;36826;47.514;19.056;2023-02-01T05:36:26;100013.78;;;11.17;53.76
50859;BME280;36826;47.514;19.056;2023-02-01T05:38:51;100014.53;;;11.57;52.62
50859;BME280;36826;47.514;19.056;2023-02-01T05:41:16;100014.13;;;11.89;51.86
50859;BME280;36826;47.514;19.056;2023-02-01T05:43:42;100024.16;;;11.87;52.40
50859;BME280;36826;47.514;19.056;2023-02-01T05:46:07;100018.69;;;11.79;52.21
50859;BME280;36826;47.514;19.056;2023-02-01T05:48:35;100019.06;;;10.89;53.68
50859;BME280;36826;47.514;19.056;2023-02-01T05:51:01;100037.00;;;11.46;53.59
50859;BME280;36826;47.514;19.056;2023-02-01T05:53:26;100038.22;;;11.14;53.66
50859;BME280;36826;47.514;19.056;2023-02-01T05:55:51;100026.78;;;11.69;53.52
50859;BME280;36826;47.514;19.056;2023-02-01T05:58:16;100036.25;;;11.63;53.18
50859;BME280;36826;47.514;19.056;2023-02-01T06:00:42;100035.38;;;11.25;53.80
50859;BME280;36826;47.514;19.056;2023-02-01T06:03:07;100036.34;;;11.34;53.95
50859;BME280;36826;47.514;19.056;2023-02-01T06:05:32;100021.44;;;11.12;53.99
50859;BME280;36826;47.514;19.056;2023-02-01T06:07:58;100055.50;;;11.49;53.02
50859;BME280;36826;47.514;19.056;2023-02-01T06:10:23;100030.00;;;11.25;53.57
50859;BME280;36826;47.514;19.056;2023-02-01T06:12:48;100034.50;;;11.25;54.08
50859;BME280;36826;47.514;19.056;2023-02-01T06:15:14;100039.56;;;11.85;52.45
50859;BME280;36826;47.514;19.056;2023-02-01T06:17:43;100044.88;;;11.57;53.05
50859;BME280;36826;47.514;19.056;2023-02-01T06:20:09;100063.00;;;11.45;53.16
50859;BME280;36826;47.514;19.056;2023-02-01T06:22:34;100060.19;;;11.37;52.86
50859;BME280;36826;47.514;19.056;2023-02-01T06:25:01;100060.28;;;12.03;52.50
50859;BME280;36826;47.514;19.056;2023-02-01T06:27:26;100071.16;;;12.01;52.25
50859;BME280;36826;47.514;19.056;2023-02-01T06:29:52;100062.19;;;11.35;54.06
50859;BME280;36826;47.514;19.056;2023-02-01T06:32:17;100064.97;;;11.53;53.27
50859;BME280;36826;47.514;19.056;2023-02-01T06:34:42;100077.03;;;11.77;52.91
50859;BME280;36826;47.514;19.056;2023-02-01T06:37:08;100092.72;;;12.19;52.36
50859;BME280;36826;47.514;19.056;2023-02-01T06:39:33;100087.63;;;13.08;50.01
50859;BME280;36826;47.514;19.056;2023-02-01T06:41:59;100084.34;;;16.26;44.77
50859;BME280;36826;47.514;19.056;2023-02-01T06:44:24;100077.91;;;18.05;41.15
50859;BME280;36826;47.514;19.056;2023-02-01T06:46:49;100063.88;;;18.90;39.43
50859;BME280;36826;47.514;19.056;2023-02-01T06:49:15;100072.09;;;20.52;36.24
50859;BME280;36826;47.514;19.056;2023-02-01T06:51:40;100082.06;;;19.61;37.38
50859;BME280;36826;47.514;19.056;2023-02-01T06:54:05;100083.75;;;20.33;36.18
50859;BME280;36826;47.514;19.056;2023-02-01T06:56:31;100083.22;;;22.32;34.45
50859;BME280;36826;47.514;19.056;2023-02-01T06:58:56;100086.97;;;23.48;32.58
50859;BME280;36826;47.514;19.056;2023-02-01T07:01:21;100076.53;;;25.17;30.73
50859;BME280;36826;47.514;19.056;2023-02-01T07:03:48;100079.63;;;24.78;30.46
50859;BME280;36826;47.514;19.056;2023-02-01T07:06:14;100071.00;;;23.12;32.12
50859;BME280;36826;47.514;19.056;2023-02-01T07:08:39;100082.47;;;22.12;32.43
50859;BME280;36826;47.514;19.056;2023-02-01T07:11:05;100064.91;;;23.68;30.98
50859;BME280;36826;47.514;19.056;2023-02-01T07:13:31;100069.69;;;24.65;30.40
50859;BME280;36826;47.514;19.056;2023-02-01T07:16:00;100084.97;;;23.04;30.55
50859;BME280;36826;47.514;19.056;2023-02-01T07:18:26;100082.91;;;23.75;29.75
50859;BME280;36826;47.514;19.056;2023-02-01T07:20:52;100082.38;;;26.28;28.50
50859;BME280;36826;47.514;19.056;2023-02-01T07:23:17;100084.06;;;26.17;28.17
50859;BME280;36826;47.514;19.056;2023-02-01T07:25:43;100101.25;;;26.24;27.48
50859;BME280;36826;47.514;19.056;2023-02-01T07:28:08;100095.19;;;28.56;26.08
50859;BME280;36826;47.514;19.056;2023-02-01T07:30:33;100097.16;;;28.83;25.53
50859;BME280;36826;47.514;19.056;2023-02-01T07:32:59;100114.94;;;27.69;25.98
50859;BME280;36826;47.514;19.056;2023-02-01T07:35:26;100121.66;;;26.04;27.10
50859;BME280;36826;47.514;19.056;2023-02-01T07:37:51;100105.38;;;27.94;26.01
50859;BME280;36826;47.514;19.056;2023-02-01T07:40:17;100111.44;;;27.96;25.79
50859;BME280;36826;47.514;19.056;2023-02-01T07:42:43;100119.91;;;27.38;25.68
50859;BME280;36826;47.514;19.056;2023-02-01T07:45:08;100118.94;;;27.61;25.74
50859;BME280;36826;47.514;19.056;2023-02-01T07:47:34;100113.97;;;27.12;26.49
50859;BME280;36826;47.514;19.056;2023-02-01T07:49:59;100114.88;;;27.01;26.54
50859;BME280;36826;47.514;19.056;2023-02-01T07:52:27;100107.75;;;27.68;25.76
50859;BME280;36826;47.514;19.056;2023-02-01T07:54:52;100112.41;;;27.33;25.94
50859;BME280;36826;47.514;19.056;2023-02-01T07:57:17;100109.22;;;26.78;27.02
50859;BME280;36826;47.514;19.056;2023-02-01T07:59:44;100122.97;;;27.24;26.09
50859;BME280;36826;47.514;19.056;2023-02-01T08:02:27;100104.38;;;25.68;27.26
50859;BME280;36826;47.514;19.056;2023-02-01T08:04:56;100111.44;;;24.61;28.37
50859;BME280;36826;47.514;19.056;2023-02-01T08:07:21;100096.09;;;23.35;29.21
50859;BME280;36826;47.514;19.056;2023-02-01T08:09:47;100116.44;;;23.64;29.22
50859;BME280;36826;47.514;19.056;2023-02-01T08:12:12;100126.34;;;21.63;31.13
50859;BME280;36826;47.514;19.056;2023-02-01T08:14:37;100126.88;;;20.43;32.77
50859;BME280;36826;47.514;19.056;2023-02-01T08:17:03;100120.06;;;20.12;33.21
50859;BME280;36826;47.514;19.056;2023-02-01T08:19:28;100118.38;;;18.74;34.37
50859;BME280;36826;47.514;19.056;2023-02-01T08:21:54;100130.97;;;19.61;33.87
50859;BME280;36826;47.514;19.056;2023-02-01T08:24:19;100129.47;;;21.33;32.38
50859;BME280;36826;47.514;19.056;2023-02-01T08:26:46;100140.56;;;22.05;31.23
50859;BME280;36826;47.514;19.056;2023-02-01T08:29:11;100154.69;;;20.80;32.57
50859;BME280;36826;47.514;19.056;2023-02-01T08:31:38;100154.00;;;19.22;34.17
50859;BME280;36826;47.514;19.056;2023-02-01T08:34:05;100159.28;;;19.30;34.65
50859;BME280;36826;47.514;19.056;2023-02-01T08:36:33;100159.50;;;20.01;33.61
50859;BME280;36826;47.514;19.056;2023-02-01T08:38:58;100166.56;;;20.65;33.01
50859;BME280;36826;47.514;19.056;2023-02-01T08:41:24;100157.75;;;18.99;34.15
50859;BME280;36826;47.514;19.056;2023-02-01T08:43:50;100162.13;;;20.22;33.88
50859;BME280;36826;47.514;19.056;2023-02-01T08:46:16;100151.59;;;20.06;33.73
50859;BME280;36826;47.514;19.056;2023-02-01T08:48:42;100149.22;;;19.46;34.37
50859;BME280;36826;47.514;19.056;2023-02-01T08:51:11;100152.75;;;18.51;35.50
50859;BME280;36826;47.514;19.056;2023-02-01T08:53:36;100150.22;;;18.35;36.45
50859;BME280;36826;47.514;19.056;2023-02-01T08:56:02;100151.31;;;18.70;36.12
50859;BME280;36826;47.514;19.056;2023-02-01T08:58:28;100145.69;;;18.87;36.02
50859;BME280;36826;47.514;19.056;2023-02-01T09:00:53;100139.41;;;18.50;35.98
50859;BME280;36826;47.514;19.056;2023-02-01T09:03:19;100142.38;;;19.50;35.11
50859;BME280;36826;47.514;19.056;2023-02-01T09:05:44;100151.88;;;19.39;35.42
50859;BME280;36826;47.514;19.056;2023-02-01T09:08:10;100143.41;;;18.91;35.49
50859;BME280;36826;47.514;19.056;2023-02-01T09:10:37;100148.47;;;18.42;36.52
50859;BME280;36826;47.514;19.056;2023-02-01T09:13:02;100143.72;;;19.61;35.20
50859;BME280;36826;47.514;19.056;2023-02-01T09:15:28;100138.66;;;22.19;32.18
50859;BME280;36826;47.514;19.056;2023-02-01T09:17:53;100127.28;;;24.21;30.56
50859;BME280;36826;47.514;19.056;2023-02-01T09:20:18;100140.84;;;25.57;28.99
50859;BME280;36826;47.514;19.056;2023-02-01T09:22:45;100139.94;;;26.11;27.82
50859;BME280;36826;47.514;19.056;2023-02-01T09:25:11;100141.31;;;26.49;26.95
50859;BME280;36826;47.514;19.056;2023-02-01T09:27:36;100140.28;;;23.57;29.47
50859;BME280;36826;47.514;19.056;2023-02-01T09:30:02;100134.84;;;22.86;30.71
50859;BME280;36826;47.514;19.056;2023-02-01T09:32:28;100133.91;;;21.88;32.44
50859;BME280;36826;47.514;19.056;2023-02-01T09:34:53;100140.13;;;23.52;30.73
50859;BME280;36826;47.514;19.056;2023-02-01T09:37:19;100140.19;;;21.82;32.58
50859;BME280;36826;47.514;19.056;2023-02-01T09:39:44;100143.09;;;22.07;32.78
50859;BME280;36826;47.514;19.056;2023-02-01T09:45:06;100161.59;;;21.85;32.95
50859;BME280;36826;47.514;19.056;2023-02-01T09:47:35;100158.50;;;19.58;34.84
50859;BME280;36826;47.514;19.056;2023-02-01T09:50:04;100158.09;;;18.45;37.18
50859;BME280;36826;47.514;19.056;2023-02-01T09:52:32;100142.22;;;16.40;40.03
50859;BME280;36826;47.514;19.056;2023-02-01T09:55:00;100146.09;;;16.46;40.87
50859;BME280;36826;47.514;19.056;2023-02-01T09:57:31;100130.81;;;18.31;37.60
50859;BME280;36826;47.514;19.056;2023-02-01T10:00:06;100136.44;;;19.68;35.08
50859;BME280;36826;47.514;19.056;2023-02-01T10:02:35;100125.00;;;20.92;34.01
50859;BME280;36826;47.514;19.056;2023-02-01T10:05:03;100116.72;;;22.53;32.58
50859;BME280;36826;47.514;19.056;2023-02-01T10:07:41;100122.22;;;23.81;31.06
50859;BME280;36826;47.514;19.056;2023-02-01T10:18:01;100099.09;;;21.16;33.49
50859;BME280;36826;47.514;19.056;2023-02-01T10:28:04;100075.50;;;18.62;36.98
50859;BME280;36826;47.514;19.056;2023-02-01T10:30:30;100084.19;;;17.53;38.43
50859;BME280;36826;47.514;19.056;2023-02-01T10:33:59;100087.63;;;18.15;38.12
50859;BME280;36826;47.514;19.056;2023-02-01T10:35:54;100088.06;;;18.33;37.65
50859;BME280;36826;47.514;19.056;2023-02-01T10:38:27;100096.53;;;17.55;38.85
50859;BME280;36826;47.514;19.056;2023-02-01T10:40:54;100081.38;;;17.99;38.25
50859;BME280;36826;47.514;19.056;2023-02-01T10:43:20;100094.97;;;18.51;38.23
50859;BME280;36826;47.514;19.056;2023-02-01T10:45:46;100082.91;;;18.75;37.79
50859;BME280;36826;47.514;19.056;2023-02-01T10:48:11;100087.41;;;18.31;38.38
50859;BME280;36826;47.514;19.056;2023-02-01T10:50:38;100085.72;;;18.45;38.07
50859;BME280;36826;47.514;19.056;2023-02-01T10:55:49;100066.13;;;17.30;39.55
50859;BME280;36826;47.514;19.056;2023-02-01T10:58:36;100071.56;;;17.98;38.67
50859;BME280;36826;47.514;19.056;2023-02-01T11:01:02;100053.03;;;18.90;37.71
50859;BME280;36826;47.514;19.056;2023-02-01T11:03:33;100059.81;;;18.43;37.98
50859;BME280;36826;47.514;19.056;2023-02-01T11:05:59;100049.91;;;18.71;38.12
50859;BME280;36826;47.514;19.056;2023-02-01T11:08:25;100056.84;;;19.46;36.93
50859;BME280;36826;47.514;19.056;2023-02-01T11:11:01;100042.53;;;19.59;37.15
50859;BME280;36826;47.514;19.056;2023-02-01T11:13:33;100039.31;;;19.77;36.41
50859;BME280;36826;47.514;19.056;2023-02-01T11:16:02;100040.47;;;19.89;36.22
50859;BME280;36826;47.514;19.056;2023-02-01T11:18:29;100037.19;;;19.72;36.78
50859;BME280;36826;47.514;19.056;2023-02-01T11:20:55;100042.69;;;19.51;37.04
50859;BME280;36826;47.514;19.056;2023-02-01T11:23:24;100035.13;;;19.46;38.02
50859;BME280;36826;47.514;19.056;2023-02-01T11:26:00;100034.97;;;18.97;39.57
50859;BME280;36826;47.514;19.056;2023-02-01T11:28:27;100040.50;;;19.39;39.40
50859;BME280;36826;47.514;19.056;2023-02-01T11:30:55;100033.50;;;19.52;39.77
50859;BME280;36826;47.514;19.056;2023-02-01T11:33:24;100034.53;;;19.22;40.32
50859;BME280;36826;47.514;19.056;2023-02-01T11:35:52;100029.41;;;19.62;40.03
50859;BME280;36826;47.514;19.056;2023-02-01T11:38:28;100033.28;;;18.96;41.79
50859;BME280;36826;47.514;19.056;2023-02-01T11:40:55;100030.78;;;18.80;43.26
50859;BME280;36826;47.514;19.056;2023-02-01T11:43:27;100034.66;;;18.49;42.94
50859;BME280;36826;47.514;19.056;2023-02-01T11:45:54;100036.75;;;18.17;44.06
50859;BME280;36826;47.514;19.056;2023-02-01T11:48:20;100029.03;;;17.84;44.84
50859;BME280;36826;47.514;19.056;2023-02-01T11:53:20;100023.44;;;17.55;45.91
50859;BME280;36826;47.514;19.056;2023-02-01T11:55:56;100003.44;;;17.71;47.71
50859;BME280;36826;47.514;19.056;2023-02-01T12:01:18;99994.38;;;17.34;47.47
50859;BME280;36826;47.514;19.056;2023-02-01T12:13:49;99995.38;;;17.63;47.22
50859;BME280;36826;47.514;19.056;2023-02-01T12:16:30;99978.03;;;17.27;47.57
50859;BME280;36826;47.514;19.056;2023-02-01T12:40:13;100027.06;;;15.18;55.27
50859;BME280;36826;47.514;19.056;2023-02-01T12:42:20;100034.13;;;15.36;56.23
50859;BME280;36826;47.514;19.056;2023-02-01T12:44:49;100029.41;;;16.03;55.04
50859;BME280;36826;47.514;19.056;2023-02-01T12:50:01;100017.50;;;15.64;57.16
50859;BME280;36826;47.514;19.056;2023-02-01T12:55:01;100003.91;;;15.49;57.91
50859;BME280;36826;47.514;19.056;2023-02-01T12:57:33;100003.97;;;15.80;56.52
50859;BME280;36826;47.514;19.056;2023-02-01T13:02:42;99975.41;;;15.94;55.98
50859;BME280;36826;47.514;19.056;2023-02-01T13:05:12;99969.00;;;15.39;58.14
50859;BME280;36826;47.514;19.056;2023-02-01T13:07:41;99958.91;;;16.44;55.95
50859;BME280;36826;47.514;19.056;2023-02-01T13:10:29;99955.94;;;16.77;54.97
50859;BME280;36826;47.514;19.056;2023-02-01T13:12:54;99950.22;;;16.72;54.42
50859;BME280;36826;47.514;19.056;2023-02-01T13:15:36;99944.50;;;17.43;52.81
50859;BME280;36826;47.514;19.056;2023-02-01T13:18:04;99930.78;;;16.53;53.11
50859;BME280;36826;47.514;19.056;2023-02-01T13:20:35;99922.47;;;17.01;53.13
50859;BME280;36826;47.514;19.056;2023-02-01T13:23:03;99913.91;;;16.28;53.27
50859;BME280;36826;47.514;19.056;2023-02-01T13:28:28;99903.38;;;15.78;53.86
50859;BME280;36826;47.514;19.056;2023-02-01T13:33:31;99907.75;;;15.48;54.92
50859;BME280;36826;47.514;19.056;2023-02-01T13:36:15;99916.91;;;15.39;54.52
50859;BME280;36826;47.514;19.056;2023-02-01T13:43:49;99939.03;;;15.17;55.61
50859;BME280;36826;47.514;19.056;2023-02-01T13:46:16;99959.75;;;15.17;57.97
50859;BME280;36826;47.514;19.056;2023-02-01T13:48:46;99967.38;;;15.22;59.51
50859;BME280;36826;47.514;19.056;2023-02-01T13:51:12;99958.75;;;15.26;61.05
50859;BME280;36826;47.514;19.056;2023-02-01T13:53:43;99967.00;;;15.25;61.14
50859;BME280;36826;47.514;19.056;2023-02-01T13:56:11;99969.94;;;14.90;62.09
50859;BME280;36826;47.514;19.056;2023-02-01T13:58:38;99947.66;;;14.38;63.37
50859;BME280;36826;47.514;19.056;2023-02-01T14:04:00;99934.34;;;14.62;63.02
50859;BME280;36826;47.514;19.056;2023-02-01T14:11:39;99907.19;;;15.04;63.09
50859;BME280;36826;47.514;19.056;2023-02-01T14:16:42;99932.78;;;15.17;61.26
50859;BME280;36826;47.514;19.056;2023-02-01T14:19:31;99923.06;;;14.99;60.50
50859;BME280;36826;47.514;19.056;2023-02-01T14:22:00;99920.78;;;15.76;61.22
50859;BME280;36826;47.514;19.056;2023-02-01T14:24:33;99933.44;;;15.75;60.93
50859;BME280;36826;47.514;19.056;2023-02-01T14:27:00;99952.41;;;15.02;60.27
50859;BME280;36826;47.514;19.056;2023-02-01T14:29:36;99962.00;;;14.72;60.43
50859;BME280;36826;47.514;19.056;2023-02-01T14:42:20;99961.50;;;14.85;60.93
50859;BME280;36826;47.514;19.056;2023-02-01T14:44:49;99965.53;;;14.81;61.37
50859;BME280;36826;47.514;19.056;2023-02-01T14:52:20;99969.13;;;14.14;58.58
50859;BME280;36826;47.514;19.056;2023-02-01T14:54:49;99962.09;;;14.29;57.48